sensor_id;sensor_type;location;lat;lon;timestamp;P1;durP1;ratioP1;P2;durP2;ratioP2
67595;SDS011;54410;48.694;8.934;2023-06-05T00:01:46;3.22;;;1.70;;
67595;SDS011;54410;48.694;8.934;2023-06-05T00:04:12;2.50;;;1.88;;
67595;SDS011;54410;48.694;8.934;2023-06-05T00:06:38;4.30;;;2.00;;
67595;SDS011;54410;48.694;8.934;2023-06-05T00:09:05;2.03;;;1.83;;
67595;SDS011;54410;48.694;8.934;2023-06-05T00:11:31;2.13;;;1.50;;
67595;SDS011;54410;48.694;8.934;2023-06-05T00:13:58;4.47;;;2.42;;
67595;SDS011;54410;48.694;8.934;2023-06-05T00:16:24;2.95;;;2.05;;
67595;SDS011;54410;48.694;8.934;2023-06-05T00:18:50;4.00;;;2.13;;
67595;SDS011;54410;48.694;8.934;2023-06-05T00:21:18;1.90;;;1.67;;
67595;SDS011;54410;48.694;8.934;2023-06-05T00:23:45;2.10;;;1.75;;
67595;SDS011;54410;48.694;8.934;2023-06-05T00:26:11;2.30;;;1.80;;
67595;SDS011;54410;48.694;8.934;2023-06-05T00:28:38;2.85;;;1.90;;
67595;SDS011;54410;48.694;8.934;2023-06-05T00:31:05;1.80;;;1.60;;
67595;SDS011;54410;48.694;8.934;2023-06-05T00:33:31;3.67;;;2.13;;
67595;SDS011;54410;48.694;8.934;2023-06-05T00:35:59;3.40;;;1.70;;
67595;SDS011;54410;48.694;8.934;2023-06-05T00:38:25;3.88;;;2.25;;
67595;SDS011;54410;48.694;8.934;2023-06-05T00:40:52;2.92;;;2.20;;
67595;SDS011;54410;48.694;8.934;2023-06-05T00:43:18;3.70;;;1.80;;
67595;SDS011;54410;48.694;8.934;2023-06-05T00:45:44;4.18;;;2.38;;
67595;SDS011;54410;48.694;8.934;2023-06-05T00:48:10;5.10;;;1.90;;
67595;SDS011;54410;48.694;8.934;2023-06-05T00:50:36;2.45;;;1.88;;
67595;SDS011;54410;48.694;8.934;2023-06-05T00:53:02;3.15;;;1.90;;
67595;SDS011;54410;48.694;8.934;2023-06-05T00:55:29;2.90;;;2.15;;
67595;SDS011;54410;48.694;8.934;2023-06-05T00:57:55;2.60;;;1.60;;
67595;SDS011;54410;48.694;8.934;2023-06-05T01:00:21;3.75;;;2.10;;
67595;SDS011;54410;48.694;8.934;2023-06-05T01:02:48;2.90;;;2.33;;
67595;SDS011;54410;48.694;8.934;2023-06-05T01:05:19;2.40;;;1.88;;
67595;SDS011;54410;48.694;8.934;2023-06-05T01:07:45;3.15;;;2.10;;
67595;SDS011;54410;48.694;8.934;2023-06-05T01:10:15;3.40;;;2.53;;
67595;SDS011;54410;48.694;8.934;2023-06-05T01:12:56;3.03;;;2.20;;
67595;SDS011;54410;48.694;8.934;2023-06-05T01:15:26;4.63;;;1.80;;
67595;SDS011;54410;48.694;8.934;2023-06-05T01:18:00;2.67;;;2.10;;
67595;SDS011;54410;48.694;8.934;2023-06-05T01:20:33;3.03;;;1.90;;
67595;SDS011;54410;48.694;8.934;2023-06-05T01:22:59;4.00;;;2.20;;
67595;SDS011;54410;48.694;8.934;2023-06-05T01:25:27;3.03;;;1.90;;
67595;SDS011;54410;48.694;8.934;2023-06-05T01:27:57;3.90;;;2.38;;
67595;SDS011;54410;48.694;8.934;2023-06-05T01:30:36;3.25;;;2.00;;
67595;SDS011;54410;48.694;8.934;2023-06-05T01:33:09;4.95;;;2.30;;
67595;SDS011;54410;48.694;8.934;2023-06-05T01:35:38;2.97;;;1.85;;
67595;SDS011;54410;48.694;8.934;2023-06-05T01:38:06;3.20;;;1.90;;
67595;SDS011;54410;48.694;8.934;2023-06-05T01:40:35;2.42;;;2.08;;
67595;SDS011;54410;48.694;8.934;2023-06-05T01:43:02;2.65;;;2.00;;
67595;SDS011;54410;48.694;8.934;2023-06-05T01:45:30;3.30;;;2.38;;
67595;SDS011;54410;48.694;8.934;2023-06-05T01:47:56;3.33;;;2.22;;
67595;SDS011;54410;48.694;8.934;2023-06-05T01:50:22;2.72;;;2.25;;
67595;SDS011;54410;48.694;8.934;2023-06-05T01:52:48;4.00;;;2.30;;
67595;SDS011;54410;48.694;8.934;2023-06-05T01:55:19;4.40;;;2.58;;
67595;SDS011;54410;48.694;8.934;2023-06-05T01:57:48;3.80;;;2.30;;
67595;SDS011;54410;48.694;8.934;2023-06-05T02:00:16;2.25;;;1.92;;
67595;SDS011;54410;48.694;8.934;2023-06-05T02:02:46;2.42;;;2.00;;
67595;SDS011;54410;48.694;8.934;2023-06-05T02:05:13;2.53;;;2.30;;
67595;SDS011;54410;48.694;8.934;2023-06-05T02:07:41;2.95;;;2.00;;
67595;SDS011;54410;48.694;8.934;2023-06-05T02:10:08;3.45;;;2.40;;
67595;SDS011;54410;48.694;8.934;2023-06-05T02:12:34;2.63;;;2.40;;
67595;SDS011;54410;48.694;8.934;2023-06-05T02:15:02;6.28;;;2.45;;
67595;SDS011;54410;48.694;8.934;2023-06-05T02:17:29;3.28;;;2.38;;
67595;SDS011;54410;48.694;8.934;2023-06-05T02:19:55;3.08;;;2.10;;
67595;SDS011;54410;48.694;8.934;2023-06-05T02:22:21;2.90;;;2.40;;
67595;SDS011;54410;48.694;8.934;2023-06-05T02:24:50;3.97;;;2.30;;
67595;SDS011;54410;48.694;8.934;2023-06-05T02:27:17;2.45;;;2.10;;
67595;SDS011;54410;48.694;8.934;2023-06-05T02:29:43;2.10;;;1.90;;
67595;SDS011;54410;48.694;8.934;2023-06-05T02:32:10;4.40;;;1.97;;
67595;SDS011;54410;48.694;8.934;2023-06-05T02:34:36;3.15;;;2.35;;
67595;SDS011;54410;48.694;8.934;2023-06-05T02:37:03;2.05;;;1.85;;
67595;SDS011;54410;48.694;8.934;2023-06-05T02:39:29;3.95;;;3.03;;
67595;SDS011;54410;48.694;8.934;2023-06-05T02:41:58;2.27;;;2.07;;
67595;SDS011;54410;48.694;8.934;2023-06-05T02:44:24;3.60;;;2.67;;
67595;SDS011;54410;48.694;8.934;2023-06-05T02:46:51;4.00;;;2.43;;
67595;SDS011;54410;48.694;8.934;2023-06-05T02:49:17;3.05;;;2.20;;
67595;SDS011;54410;48.694;8.934;2023-06-05T02:51:43;3.85;;;2.38;;
67595;SDS011;54410;48.694;8.934;2023-06-05T02:54:09;2.35;;;2.05;;
67595;SDS011;54410;48.694;8.934;2023-06-05T02:56:35;3.33;;;2.33;;
67595;SDS011;54410;48.694;8.934;2023-06-05T02:59:03;2.53;;;1.90;;
67595;SDS011;54410;48.694;8.934;2023-06-05T03:01:29;3.33;;;2.17;;
67595;SDS011;54410;48.694;8.934;2023-06-05T03:04:00;2.20;;;2.00;;
67595;SDS011;54410;48.694;8.934;2023-06-05T03:06:27;4.70;;;2.10;;
67595;SDS011;54410;48.694;8.934;2023-06-05T03:08:59;2.93;;;1.80;;
67595;SDS011;54410;48.694;8.934;2023-06-05T03:11:25;4.13;;;2.23;;
67595;SDS011;54410;48.694;8.934;2023-06-05T03:13:51;2.37;;;1.93;;
67595;SDS011;54410;48.694;8.934;2023-06-05T03:16:18;4.47;;;2.20;;
67595;SDS011;54410;48.694;8.934;2023-06-05T03:18:48;2.20;;;1.93;;
67595;SDS011;54410;48.694;8.934;2023-06-05T03:21:15;2.47;;;1.93;;
67595;SDS011;54410;48.694;8.934;2023-06-05T03:23:40;3.97;;;2.47;;
67595;SDS011;54410;48.694;8.934;2023-06-05T03:26:06;2.40;;;2.20;;
67595;SDS011;54410;48.694;8.934;2023-06-05T03:28:32;3.30;;;2.63;;
67595;SDS011;54410;48.694;8.934;2023-06-05T03:31:00;2.80;;;2.47;;
67595;SDS011;54410;48.694;8.934;2023-06-05T03:33:28;3.27;;;2.47;;
67595;SDS011;54410;48.694;8.934;2023-06-05T03:35:54;2.17;;;1.97;;
67595;SDS011;54410;48.694;8.934;2023-06-05T03:38:20;3.27;;;2.60;;
67595;SDS011;54410;48.694;8.934;2023-06-05T03:40:46;3.77;;;2.47;;
67595;SDS011;54410;48.694;8.934;2023-06-05T03:43:12;2.43;;;1.93;;
67595;SDS011;54410;48.694;8.934;2023-06-05T03:45:38;2.60;;;2.30;;
67595;SDS011;54410;48.694;8.934;2023-06-05T03:48:05;2.77;;;2.40;;
67595;SDS011;54410;48.694;8.934;2023-06-05T03:50:32;2.27;;;1.93;;
67595;SDS011;54410;48.694;8.934;2023-06-05T03:53:02;3.97;;;2.60;;
67595;SDS011;54410;48.694;8.934;2023-06-05T03:55:29;2.87;;;2.07;;
67595;SDS011;54410;48.694;8.934;2023-06-05T03:58:05;3.67;;;2.60;;
67595;SDS011;54410;48.694;8.934;2023-06-05T04:00:32;4.20;;;3.03;;
67595;SDS011;54410;48.694;8.934;2023-06-05T04:02:58;2.07;;;1.90;;
67595;SDS011;54410;48.694;8.934;2023-06-05T04:05:25;4.03;;;2.90;;
67595;SDS011;54410;48.694;8.934;2023-06-05T04:07:51;3.30;;;2.38;;
67595;SDS011;54410;48.694;8.934;2023-06-05T04:10:17;2.83;;;2.22;;
67595;SDS011;54410;48.694;8.934;2023-06-05T04:12:43;2.95;;;2.35;;
67595;SDS011;54410;48.694;8.934;2023-06-05T04:15:09;3.78;;;2.17;;
67595;SDS011;54410;48.694;8.934;2023-06-05T04:17:36;3.08;;;2.70;;
67595;SDS011;54410;48.694;8.934;2023-06-05T04:20:03;3.55;;;1.90;;
67595;SDS011;54410;48.694;8.934;2023-06-05T04:22:29;5.45;;;2.38;;
67595;SDS011;54410;48.694;8.934;2023-06-05T04:24:56;4.10;;;2.17;;
67595;SDS011;54410;48.694;8.934;2023-06-05T04:27:22;2.85;;;2.05;;
67595;SDS011;54410;48.694;8.934;2023-06-05T04:29:53;2.20;;;1.63;;
67595;SDS011;54410;48.694;8.934;2023-06-05T04:32:19;1.98;;;1.77;;
67595;SDS011;54410;48.694;8.934;2023-06-05T04:34:45;2.72;;;2.40;;
67595;SDS011;54410;48.694;8.934;2023-06-05T04:37:11;4.30;;;2.72;;
67595;SDS011;54410;48.694;8.934;2023-06-05T04:39:38;3.25;;;2.22;;
67595;SDS011;54410;48.694;8.934;2023-06-05T04:42:04;5.97;;;3.00;;
67595;SDS011;54410;48.694;8.934;2023-06-05T04:44:30;5.45;;;3.50;;
67595;SDS011;54410;48.694;8.934;2023-06-05T04:46:56;4.55;;;3.35;;
67595;SDS011;54410;48.694;8.934;2023-06-05T04:49:22;4.50;;;4.20;;
67595;SDS011;54410;48.694;8.934;2023-06-05T04:51:48;2.90;;;2.70;;
67595;SDS011;54410;48.694;8.934;2023-06-05T04:54:13;3.17;;;2.00;;
67595;SDS011;54410;48.694;8.934;2023-06-05T04:56:39;2.22;;;2.00;;
67595;SDS011;54410;48.694;8.934;2023-06-05T04:59:05;2.20;;;1.88;;
67595;SDS011;54410;48.694;8.934;2023-06-05T05:01:31;2.40;;;1.73;;
67595;SDS011;54410;48.694;8.934;2023-06-05T05:03:58;2.33;;;2.00;;
67595;SDS011;54410;48.694;8.934;2023-06-05T05:06:24;3.72;;;1.60;;
67595;SDS011;54410;48.694;8.934;2023-06-05T05:08:50;2.63;;;1.52;;
67595;SDS011;54410;48.694;8.934;2023-06-05T05:11:18;1.75;;;1.45;;
67595;SDS011;54410;48.694;8.934;2023-06-05T05:13:44;4.00;;;1.48;;
67595;SDS011;54410;48.694;8.934;2023-06-05T05:16:10;1.63;;;1.52;;
67595;SDS011;54410;48.694;8.934;2023-06-05T05:18:37;3.67;;;1.88;;
67595;SDS011;54410;48.694;8.934;2023-06-05T05:21:04;2.72;;;1.52;;
67595;SDS011;54410;48.694;8.934;2023-06-05T05:23:30;2.05;;;1.60;;
67595;SDS011;54410;48.694;8.934;2023-06-05T05:25:56;1.63;;;1.40;;
67595;SDS011;54410;48.694;8.934;2023-06-05T05:28:22;2.08;;;1.67;;
67595;SDS011;54410;48.694;8.934;2023-06-05T05:30:47;2.95;;;1.83;;
67595;SDS011;54410;48.694;8.934;2023-06-05T05:33:13;3.10;;;1.90;;
67595;SDS011;54410;48.694;8.934;2023-06-05T05:35:40;2.78;;;1.58;;
67595;SDS011;54410;48.694;8.934;2023-06-05T05:38:06;1.90;;;1.33;;
67595;SDS011;54410;48.694;8.934;2023-06-05T05:40:31;4.32;;;1.75;;
67595;SDS011;54410;48.694;8.934;2023-06-05T05:42:57;3.15;;;1.77;;
67595;SDS011;54410;48.694;8.934;2023-06-05T05:45:23;1.98;;;1.70;;
67595;SDS011;54410;48.694;8.934;2023-06-05T05:47:48;2.00;;;1.70;;
67595;SDS011;54410;48.694;8.934;2023-06-05T05:50:14;1.80;;;1.55;;
67595;SDS011;54410;48.694;8.934;2023-06-05T05:52:40;2.05;;;1.70;;
67595;SDS011;54410;48.694;8.934;2023-06-05T05:55:08;2.65;;;1.67;;
67595;SDS011;54410;48.694;8.934;2023-06-05T05:57:34;2.55;;;1.75;;
67595;SDS011;54410;48.694;8.934;2023-06-05T06:00:00;2.40;;;1.67;;
67595;SDS011;54410;48.694;8.934;2023-06-05T06:02:26;1.67;;;1.58;;
67595;SDS011;54410;48.694;8.934;2023-06-05T06:04:52;3.53;;;1.67;;
67595;SDS011;54410;48.694;8.934;2023-06-05T06:07:19;1.90;;;1.60;;
67595;SDS011;54410;48.694;8.934;2023-06-05T06:09:44;2.38;;;1.65;;
67595;SDS011;54410;48.694;8.934;2023-06-05T06:12:11;2.55;;;1.70;;
67595;SDS011;54410;48.694;8.934;2023-06-05T06:14:36;2.65;;;1.70;;
67595;SDS011;54410;48.694;8.934;2023-06-05T06:17:03;2.72;;;1.60;;
67595;SDS011;54410;48.694;8.934;2023-06-05T06:19:30;1.83;;;1.73;;
67595;SDS011;54410;48.694;8.934;2023-06-05T06:21:57;5.35;;;2.00;;
67595;SDS011;54410;48.694;8.934;2023-06-05T06:24:23;4.88;;;1.88;;
67595;SDS011;54410;48.694;8.934;2023-06-05T06:26:49;8.13;;;2.17;;
67595;SDS011;54410;48.694;8.934;2023-06-05T06:29:20;10.60;;;2.10;;
67595;SDS011;54410;48.694;8.934;2023-06-05T06:31:48;8.40;;;1.90;;
67595;SDS011;54410;48.694;8.934;2023-06-05T06:34:14;7.32;;;2.10;;
67595;SDS011;54410;48.694;8.934;2023-06-05T06:36:41;5.90;;;2.33;;
67595;SDS011;54410;48.694;8.934;2023-06-05T06:39:09;6.85;;;1.90;;
67595;SDS011;54410;48.694;8.934;2023-06-05T06:41:36;5.20;;;1.77;;
67595;SDS011;54410;48.694;8.934;2023-06-05T06:44:02;7.30;;;2.08;;
67595;SDS011;54410;48.694;8.934;2023-06-05T06:46:28;6.82;;;2.00;;
67595;SDS011;54410;48.694;8.934;2023-06-05T06:48:54;2.95;;;2.08;;
67595;SDS011;54410;48.694;8.934;2023-06-05T06:51:20;4.90;;;2.20;;
67595;SDS011;54410;48.694;8.934;2023-06-05T06:53:49;5.30;;;1.85;;
67595;SDS011;54410;48.694;8.934;2023-06-05T06:56:16;5.47;;;1.88;;
67595;SDS011;54410;48.694;8.934;2023-06-05T06:58:42;4.95;;;2.35;;
67595;SDS011;54410;48.694;8.934;2023-06-05T07:01:08;5.18;;;2.17;;
67595;SDS011;54410;48.694;8.934;2023-06-05T07:03:35;6.40;;;1.90;;
67595;SDS011;54410;48.694;8.934;2023-06-05T07:06:01;8.30;;;2.10;;
67595;SDS011;54410;48.694;8.934;2023-06-05T07:08:27;6.07;;;2.20;;
67595;SDS011;54410;48.694;8.934;2023-06-05T07:10:52;4.53;;;2.30;;
67595;SDS011;54410;48.694;8.934;2023-06-05T07:13:21;4.50;;;1.92;;
67595;SDS011;54410;48.694;8.934;2023-06-05T07:15:47;5.85;;;2.20;;
67595;SDS011;54410;48.694;8.934;2023-06-05T07:18:13;6.85;;;2.30;;
67595;SDS011;54410;48.694;8.934;2023-06-05T07:20:40;4.35;;;2.15;;
67595;SDS011;54410;48.694;8.934;2023-06-05T07:23:05;6.97;;;2.10;;
67595;SDS011;54410;48.694;8.934;2023-06-05T07:25:31;12.70;;;2.05;;
67595;SDS011;54410;48.694;8.934;2023-06-05T07:27:57;8.85;;;2.00;;
67595;SDS011;54410;48.694;8.934;2023-06-05T07:30:24;4.57;;;1.95;;
67595;SDS011;54410;48.694;8.934;2023-06-05T07:32:50;7.43;;;2.05;;
67595;SDS011;54410;48.694;8.934;2023-06-05T07:35:16;5.53;;;2.33;;
67595;SDS011;54410;48.694;8.934;2023-06-05T07:37:42;5.15;;;2.40;;
67595;SDS011;54410;48.694;8.934;2023-06-05T07:40:08;6.00;;;2.15;;
67595;SDS011;54410;48.694;8.934;2023-06-05T07:42:34;3.38;;;2.30;;
67595;SDS011;54410;48.694;8.934;2023-06-05T07:45:00;4.75;;;1.95;;
67595;SDS011;54410;48.694;8.934;2023-06-05T07:47:26;3.22;;;2.08;;
67595;SDS011;54410;48.694;8.934;2023-06-05T07:49:59;2.53;;;1.60;;
67595;SDS011;54410;48.694;8.934;2023-06-05T07:52:25;4.78;;;2.03;;
67595;SDS011;54410;48.694;8.934;2023-06-05T07:54:51;4.70;;;1.83;;
67595;SDS011;54410;48.694;8.934;2023-06-05T07:57:17;3.10;;;2.28;;
67595;SDS011;54410;48.694;8.934;2023-06-05T07:59:44;3.92;;;2.40;;
67595;SDS011;54410;48.694;8.934;2023-06-05T08:02:11;4.38;;;2.17;;
67595;SDS011;54410;48.694;8.934;2023-06-05T08:04:37;4.43;;;2.20;;
67595;SDS011;54410;48.694;8.934;2023-06-05T08:07:04;3.92;;;2.17;;
67595;SDS011;54410;48.694;8.934;2023-06-05T08:09:30;2.28;;;1.98;;
67595;SDS011;54410;48.694;8.934;2023-06-05T08:11:55;8.07;;;2.20;;
67595;SDS011;54410;48.694;8.934;2023-06-05T08:14:21;3.25;;;2.20;;
67595;SDS011;54410;48.694;8.934;2023-06-05T08:16:47;3.30;;;2.33;;
67595;SDS011;54410;48.694;8.934;2023-06-05T08:19:13;5.60;;;2.72;;
67595;SDS011;54410;48.694;8.934;2023-06-05T08:21:39;5.47;;;2.28;;
67595;SDS011;54410;48.694;8.934;2023-06-05T08:24:06;4.20;;;2.03;;
67595;SDS011;54410;48.694;8.934;2023-06-05T08:26:32;7.47;;;2.40;;
67595;SDS011;54410;48.694;8.934;2023-06-05T08:28:58;12.70;;;2.85;;
67595;SDS011;54410;48.694;8.934;2023-06-05T08:31:24;7.70;;;2.83;;
67595;SDS011;54410;48.694;8.934;2023-06-05T08:33:50;4.93;;;2.95;;
67595;SDS011;54410;48.694;8.934;2023-06-05T08:36:16;3.70;;;2.80;;
67595;SDS011;54410;48.694;8.934;2023-06-05T08:38:42;3.97;;;2.58;;
67595;SDS011;54410;48.694;8.934;2023-06-05T08:41:08;4.32;;;2.90;;
67595;SDS011;54410;48.694;8.934;2023-06-05T08:43:36;10.25;;;2.78;;
67595;SDS011;54410;48.694;8.934;2023-06-05T08:46:02;8.40;;;2.80;;
67595;SDS011;54410;48.694;8.934;2023-06-05T08:48:32;6.13;;;2.60;;
67595;SDS011;54410;48.694;8.934;2023-06-05T08:50:59;4.90;;;2.70;;
67595;SDS011;54410;48.694;8.934;2023-06-05T08:53:25;8.15;;;2.80;;
67595;SDS011;54410;48.694;8.934;2023-06-05T08:55:56;5.90;;;2.70;;
67595;SDS011;54410;48.694;8.934;2023-06-05T08:58:21;6.68;;;2.83;;
67595;SDS011;54410;48.694;8.934;2023-06-05T09:00:48;3.03;;;2.60;;
67595;SDS011;54410;48.694;8.934;2023-06-05T09:03:14;17.67;;;3.30;;
67595;SDS011;54410;48.694;8.934;2023-06-05T09:05:48;9.85;;;3.03;;
67595;SDS011;54410;48.694;8.934;2023-06-05T09:08:14;4.63;;;3.00;;
67595;SDS011;54410;48.694;8.934;2023-06-05T09:10:42;5.00;;;3.13;;
67595;SDS011;54410;48.694;8.934;2023-06-05T09:13:08;6.13;;;3.00;;
67595;SDS011;54410;48.694;8.934;2023-06-05T09:15:34;5.45;;;3.17;;
67595;SDS011;54410;48.694;8.934;2023-06-05T09:20:30;4.78;;;3.75;;
67595;SDS011;54410;48.694;8.934;2023-06-05T09:22:59;9.00;;;3.50;;
67595;SDS011;54410;48.694;8.934;2023-06-05T09:25:26;4.55;;;3.30;;
67595;SDS011;54410;48.694;8.934;2023-06-05T09:28:06;7.53;;;3.70;;
67595;SDS011;54410;48.694;8.934;2023-06-05T09:30:32;8.82;;;3.85;;
67595;SDS011;54410;48.694;8.934;2023-06-05T09:33:10;18.88;;;4.05;;
67595;SDS011;54410;48.694;8.934;2023-06-05T09:35:39;9.32;;;3.90;;
67595;SDS011;54410;48.694;8.934;2023-06-05T09:38:16;8.43;;;3.85;;
67595;SDS011;54410;48.694;8.934;2023-06-05T09:40:51;8.27;;;3.90;;
67595;SDS011;54410;48.694;8.934;2023-06-05T09:43:20;6.00;;;3.60;;
67595;SDS011;54410;48.694;8.934;2023-06-05T09:45:49;5.25;;;4.32;;
67595;SDS011;54410;48.694;8.934;2023-06-05T09:48:15;4.03;;;3.63;;
67595;SDS011;54410;48.694;8.934;2023-06-05T09:50:41;7.13;;;3.70;;
67595;SDS011;54410;48.694;8.934;2023-06-05T09:53:10;7.13;;;3.97;;
67595;SDS011;54410;48.694;8.934;2023-06-05T09:55:39;5.32;;;3.47;;
67595;SDS011;54410;48.694;8.934;2023-06-05T09:58:05;6.13;;;3.78;;
67595;SDS011;54410;48.694;8.934;2023-06-05T10:00:36;6.43;;;3.42;;
67595;SDS011;54410;48.694;8.934;2023-06-05T10:03:03;4.97;;;2.92;;
67595;SDS011;54410;48.694;8.934;2023-06-05T10:05:31;4.00;;;3.60;;
67595;SDS011;54410;48.694;8.934;2023-06-05T10:07:57;6.07;;;3.30;;
67595;SDS011;54410;48.694;8.934;2023-06-05T10:10:24;6.75;;;3.78;;
67595;SDS011;54410;48.694;8.934;2023-06-05T10:12:50;3.88;;;3.47;;
67595;SDS011;54410;48.694;8.934;2023-06-05T10:15:21;5.13;;;3.45;;
67595;SDS011;54410;48.694;8.934;2023-06-05T10:17:47;10.25;;;4.00;;
67595;SDS011;54410;48.694;8.934;2023-06-05T10:20:14;6.15;;;3.40;;
67595;SDS011;54410;48.694;8.934;2023-06-05T10:22:41;4.30;;;3.58;;
67595;SDS011;54410;48.694;8.934;2023-06-05T10:33:00;6.20;;;3.42;;
67595;SDS011;54410;48.694;8.934;2023-06-05T10:35:48;4.43;;;3.38;;
67595;SDS011;54410;48.694;8.934;2023-06-05T10:38:25;5.10;;;3.83;;
67595;SDS011;54410;48.694;8.934;2023-06-05T10:40:55;5.47;;;3.13;;
67595;SDS011;54410;48.694;8.934;2023-06-05T10:46:52;3.92;;;3.30;;
67595;SDS011;54410;48.694;8.934;2023-06-05T10:51:51;6.85;;;3.42;;
67595;SDS011;54410;48.694;8.934;2023-06-05T10:59:24;5.53;;;3.70;;
67595;SDS011;54410;48.694;8.934;2023-06-05T11:02:25;4.53;;;3.75;;
67595;SDS011;54410;48.694;8.934;2023-06-05T11:10:33;4.90;;;3.60;;
67595;SDS011;54410;48.694;8.934;2023-06-05T11:15:11;4.68;;;3.30;;
67595;SDS011;54410;48.694;8.934;2023-06-05T11:17:39;3.95;;;3.40;;
67595;SDS011;54410;48.694;8.934;2023-06-05T11:20:06;4.15;;;3.60;;
67595;SDS011;54410;48.694;8.934;2023-06-05T11:23:20;5.82;;;3.63;;
67595;SDS011;54410;48.694;8.934;2023-06-05T11:27:50;4.15;;;3.50;;
67595;SDS011;54410;48.694;8.934;2023-06-05T11:30:18;5.78;;;3.20;;
67595;SDS011;54410;48.694;8.934;2023-06-05T11:32:45;6.15;;;3.28;;
67595;SDS011;54410;48.694;8.934;2023-06-05T11:35:11;5.35;;;3.10;;
67595;SDS011;54410;48.694;8.934;2023-06-05T11:37:37;4.65;;;3.10;;
67595;SDS011;54410;48.694;8.934;2023-06-05T11:40:05;6.35;;;3.42;;
67595;SDS011;54410;48.694;8.934;2023-06-05T11:42:35;3.30;;;3.00;;
67595;SDS011;54410;48.694;8.934;2023-06-05T11:45:01;4.35;;;3.22;;
67595;SDS011;54410;48.694;8.934;2023-06-05T11:47:28;3.65;;;3.33;;
67595;SDS011;54410;48.694;8.934;2023-06-05T11:50:28;4.13;;;3.25;;
67595;SDS011;54410;48.694;8.934;2023-06-05T11:52:51;6.15;;;3.35;;
67595;SDS011;54410;48.694;8.934;2023-06-05T11:55:18;5.10;;;3.20;;
67595;SDS011;54410;48.694;8.934;2023-06-05T11:57:46;5.60;;;3.00;;
67595;SDS011;54410;48.694;8.934;2023-06-05T12:00:13;4.03;;;3.08;;
67595;SDS011;54410;48.694;8.934;2023-06-05T12:02:43;8.45;;;3.33;;
67595;SDS011;54410;48.694;8.934;2023-06-05T12:05:09;6.07;;;2.88;;
67595;SDS011;54410;48.694;8.934;2023-06-05T12:07:35;2.80;;;2.60;;
67595;SDS011;54410;48.694;8.934;2023-06-05T12:10:02;4.80;;;2.95;;
67595;SDS011;54410;48.694;8.934;2023-06-05T12:12:29;5.60;;;3.13;;
67595;SDS011;54410;48.694;8.934;2023-06-05T12:14:55;5.78;;;2.78;;
67595;SDS011;54410;48.694;8.934;2023-06-05T12:17:21;3.30;;;2.95;;
67595;SDS011;54410;48.694;8.934;2023-06-05T12:19:53;3.65;;;3.10;;
67595;SDS011;54410;48.694;8.934;2023-06-05T12:22:19;6.97;;;2.75;;
67595;SDS011;54410;48.694;8.934;2023-06-05T12:24:45;5.20;;;2.75;;
67595;SDS011;54410;48.694;8.934;2023-06-05T12:27:11;7.43;;;2.88;;
67595;SDS011;54410;48.694;8.934;2023-06-05T12:29:38;6.03;;;2.95;;
67595;SDS011;54410;48.694;8.934;2023-06-05T12:32:18;3.05;;;2.70;;
67595;SDS011;54410;48.694;8.934;2023-06-05T12:34:45;3.53;;;2.70;;
67595;SDS011;54410;48.694;8.934;2023-06-05T12:39:52;18.50;;;3.00;;
67595;SDS011;54410;48.694;8.934;2023-06-05T12:42:18;5.68;;;2.90;;
67595;SDS011;54410;48.694;8.934;2023-06-05T12:44:44;5.97;;;2.58;;
67595;SDS011;54410;48.694;8.934;2023-06-05T12:47:09;3.88;;;2.78;;
67595;SDS011;54410;48.694;8.934;2023-06-05T12:49:35;3.40;;;2.53;;
67595;SDS011;54410;48.694;8.934;2023-06-05T12:52:02;4.82;;;2.50;;
67595;SDS011;54410;48.694;8.934;2023-06-05T12:54:28;6.20;;;2.63;;
67595;SDS011;54410;48.694;8.934;2023-06-05T12:56:55;3.58;;;2.67;;
67595;SDS011;54410;48.694;8.934;2023-06-05T12:59:22;5.90;;;2.85;;
67595;SDS011;54410;48.694;8.934;2023-06-05T13:01:48;3.33;;;2.78;;
67595;SDS011;54410;48.694;8.934;2023-06-05T13:04:14;6.20;;;2.78;;
67595;SDS011;54410;48.694;8.934;2023-06-05T13:06:42;5.80;;;3.10;;
67595;SDS011;54410;48.694;8.934;2023-06-05T13:09:08;3.85;;;2.28;;
67595;SDS011;54410;48.694;8.934;2023-06-05T13:11:35;3.67;;;2.60;;
67595;SDS011;54410;48.694;8.934;2023-06-05T13:14:01;4.25;;;2.70;;
67595;SDS011;54410;48.694;8.934;2023-06-05T13:16:27;5.15;;;2.55;;
67595;SDS011;54410;48.694;8.934;2023-06-05T13:18:53;5.15;;;2.35;;
67595;SDS011;54410;48.694;8.934;2023-06-05T13:21:19;5.85;;;2.92;;
67595;SDS011;54410;48.694;8.934;2023-06-05T13:23:45;2.85;;;2.60;;
67595;SDS011;54410;48.694;8.934;2023-06-05T13:26:11;3.97;;;2.75;;
67595;SDS011;54410;48.694;8.934;2023-06-05T13:28:37;9.50;;;2.60;;
67595;SDS011;54410;48.694;8.934;2023-06-05T13:31:03;3.65;;;2.40;;
67595;SDS011;54410;48.694;8.934;2023-06-05T13:33:31;5.03;;;2.90;;
67595;SDS011;54410;48.694;8.934;2023-06-05T13:35:58;4.35;;;2.58;;
67595;SDS011;54410;48.694;8.934;2023-06-05T13:38:24;4.57;;;2.88;;
67595;SDS011;54410;48.694;8.934;2023-06-05T13:40:50;7.07;;;2.95;;
67595;SDS011;54410;48.694;8.934;2023-06-05T13:43:17;5.30;;;2.65;;
67595;SDS011;54410;48.694;8.934;2023-06-05T13:45:43;4.00;;;2.60;;
67595;SDS011;54410;48.694;8.934;2023-06-05T13:48:09;3.13;;;2.65;;
67595;SDS011;54410;48.694;8.934;2023-06-05T13:50:35;3.13;;;2.65;;
67595;SDS011;54410;48.694;8.934;2023-06-05T13:53:01;6.07;;;2.78;;
67595;SDS011;54410;48.694;8.934;2023-06-05T13:55:27;2.78;;;2.55;;
67595;SDS011;54410;48.694;8.934;2023-06-05T13:57:53;5.88;;;2.60;;
67595;SDS011;54410;48.694;8.934;2023-06-05T14:00:21;3.58;;;2.75;;
67595;SDS011;54410;48.694;8.934;2023-06-05T14:02:48;5.40;;;3.08;;
67595;SDS011;54410;48.694;8.934;2023-06-05T14:05:13;4.55;;;2.83;;
67595;SDS011;54410;48.694;8.934;2023-06-05T14:07:39;4.85;;;3.13;;
67595;SDS011;54410;48.694;8.934;2023-06-05T14:10:05;3.28;;;2.50;;
67595;SDS011;54410;48.694;8.934;2023-06-05T14:12:31;3.13;;;2.83;;
67595;SDS011;54410;48.694;8.934;2023-06-05T14:14:57;4.05;;;2.75;;
67595;SDS011;54410;48.694;8.934;2023-06-05T14:17:23;7.38;;;3.40;;
67595;SDS011;54410;48.694;8.934;2023-06-05T14:19:49;4.57;;;2.90;;
67595;SDS011;54410;48.694;8.934;2023-06-05T14:22:15;3.22;;;2.92;;
67595;SDS011;54410;48.694;8.934;2023-06-05T14:24:41;3.58;;;3.03;;
67595;SDS011;54410;48.694;8.934;2023-06-05T14:27:07;4.35;;;3.00;;
67595;SDS011;54410;48.694;8.934;2023-06-05T14:29:34;3.63;;;2.78;;
67595;SDS011;54410;48.694;8.934;2023-06-05T14:32:00;4.72;;;3.13;;
67595;SDS011;54410;48.694;8.934;2023-06-05T14:34:26;3.22;;;2.90;;
67595;SDS011;54410;48.694;8.934;2023-06-05T14:36:52;4.03;;;2.97;;
67595;SDS011;54410;48.694;8.934;2023-06-05T14:39:18;6.32;;;2.95;;
67595;SDS011;54410;48.694;8.934;2023-06-05T14:41:45;5.53;;;2.88;;
67595;SDS011;54410;48.694;8.934;2023-06-05T14:44:11;5.65;;;2.95;;
67595;SDS011;54410;48.694;8.934;2023-06-05T14:46:38;4.80;;;2.92;;
67595;SDS011;54410;48.694;8.934;2023-06-05T14:49:04;5.88;;;3.17;;
67595;SDS011;54410;48.694;8.934;2023-06-05T14:51:31;5.03;;;2.75;;
67595;SDS011;54410;48.694;8.934;2023-06-05T14:53:56;9.88;;;3.33;;
67595;SDS011;54410;48.694;8.934;2023-06-05T14:56:22;5.07;;;2.80;;
67595;SDS011;54410;48.694;8.934;2023-06-05T14:58:48;4.53;;;2.90;;
67595;SDS011;54410;48.694;8.934;2023-06-05T15:01:16;5.00;;;2.83;;
67595;SDS011;54410;48.694;8.934;2023-06-05T15:03:44;5.57;;;3.30;;
67595;SDS011;54410;48.694;8.934;2023-06-05T15:06:11;4.95;;;3.50;;
67595;SDS011;54410;48.694;8.934;2023-06-05T15:08:37;3.40;;;2.80;;
67595;SDS011;54410;48.694;8.934;2023-06-05T15:11:03;8.63;;;2.88;;
67595;SDS011;54410;48.694;8.934;2023-06-05T15:13:29;5.57;;;2.90;;
67595;SDS011;54410;48.694;8.934;2023-06-05T15:15:55;3.67;;;2.90;;
67595;SDS011;54410;48.694;8.934;2023-06-05T15:18:24;3.20;;;2.85;;
67595;SDS011;54410;48.694;8.934;2023-06-05T15:20:50;5.82;;;3.17;;
67595;SDS011;54410;48.694;8.934;2023-06-05T15:23:16;4.47;;;2.95;;